sensor_id;sensor_type;location;lat;lon;timestamp;P1;durP1;ratioP1;P2;durP2;ratioP2
35743;SDS011;21867;52.012;4.324;2023-03-23T00:02:08;4.97;;;4.13;;
35743;SDS011;21867;52.012;4.324;2023-03-23T00:04:35;7.83;;;4.40;;
35743;SDS011;21867;52.012;4.324;2023-03-23T00:07:02;5.57;;;4.33;;
35743;SDS011;21867;52.012;4.324;2023-03-23T00:09:43;6.17;;;4.20;;
35743;SDS011;21867;52.012;4.324;2023-03-23T00:12:09;6.13;;;4.27;;
35743;SDS011;21867;52.012;4.324;2023-03-23T00:14:36;5.83;;;3.97;;
35743;SDS011;21867;52.012;4.324;2023-03-23T00:17:02;7.57;;;4.40;;
35743;SDS011;21867;52.012;4.324;2023-03-23T00:28:40;5.10;;;3.90;;
35743;SDS011;21867;52.012;4.324;2023-03-23T00:31:07;5.70;;;4.03;;
35743;SDS011;21867;52.012;4.324;2023-03-23T00:33:34;5.90;;;4.10;;
35743;SDS011;21867;52.012;4.324;2023-03-23T00:36:01;4.13;;;3.50;;
35743;SDS011;21867;52.012;4.324;2023-03-23T00:38:27;5.63;;;3.73;;
35743;SDS011;21867;52.012;4.324;2023-03-23T00:43:40;5.57;;;3.50;;
35743;SDS011;21867;52.012;4.324;2023-03-23T00:46:06;6.10;;;3.37;;
35743;SDS011;21867;52.012;4.324;2023-03-23T00:48:32;7.67;;;3.80;;
35743;SDS011;21867;52.012;4.324;2023-03-23T00:57:14;5.40;;;3.57;;
35743;SDS011;21867;52.012;4.324;2023-03-23T00:59:42;7.63;;;4.07;;
35743;SDS011;21867;52.012;4.324;2023-03-23T01:02:08;4.60;;;3.40;;
35743;SDS011;21867;52.012;4.324;2023-03-23T01:04:37;4.87;;;3.77;;
35743;SDS011;21867;52.012;4.324;2023-03-23T01:07:04;5.30;;;3.77;;
35743;SDS011;21867;52.012;4.324;2023-03-23T01:09:46;9.67;;;4.57;;
35743;SDS011;21867;52.012;4.324;2023-03-23T01:12:12;7.60;;;3.87;;
35743;SDS011;21867;52.012;4.324;2023-03-23T01:14:38;3.37;;;3.07;;
35743;SDS011;21867;52.012;4.324;2023-03-23T01:17:07;3.93;;;3.53;;
35743;SDS011;21867;52.012;4.324;2023-03-23T01:19:33;4.97;;;3.80;;
35743;SDS011;21867;52.012;4.324;2023-03-23T01:28:24;6.73;;;3.70;;
35743;SDS011;21867;52.012;4.324;2023-03-23T01:30:50;4.80;;;4.07;;
35743;SDS011;21867;52.012;4.324;2023-03-23T01:33:17;4.50;;;3.50;;
35743;SDS011;21867;52.012;4.324;2023-03-23T01:35:44;8.17;;;3.60;;
35743;SDS011;21867;52.012;4.324;2023-03-23T01:38:10;11.67;;;4.03;;
35743;SDS011;21867;52.012;4.324;2023-03-23T01:40:36;3.17;;;2.90;;
35743;SDS011;21867;52.012;4.324;2023-03-23T01:43:07;6.67;;;3.57;;
35743;SDS011;21867;52.012;4.324;2023-03-23T01:45:34;4.17;;;3.40;;
35743;SDS011;21867;52.012;4.324;2023-03-23T01:48:12;6.47;;;3.80;;
35743;SDS011;21867;52.012;4.324;2023-03-23T01:50:43;6.57;;;3.70;;
35743;SDS011;21867;52.012;4.324;2023-03-23T01:53:11;5.20;;;3.97;;
35743;SDS011;21867;52.012;4.324;2023-03-23T02:01:24;6.47;;;3.40;;
35743;SDS011;21867;52.012;4.324;2023-03-23T02:03:51;4.60;;;3.20;;
35743;SDS011;21867;52.012;4.324;2023-03-23T02:06:20;3.30;;;2.80;;
35743;SDS011;21867;52.012;4.324;2023-03-23T02:09:06;7.87;;;3.47;;
35743;SDS011;21867;52.012;4.324;2023-03-23T02:11:52;5.87;;;3.30;;
35743;SDS011;21867;52.012;4.324;2023-03-23T02:14:19;4.07;;;3.77;;
35743;SDS011;21867;52.012;4.324;2023-03-23T02:16:47;4.93;;;4.07;;
35743;SDS011;21867;52.012;4.324;2023-03-23T02:19:21;5.37;;;3.50;;
35743;SDS011;21867;52.012;4.324;2023-03-23T02:22:04;4.20;;;3.80;;
35743;SDS011;21867;52.012;4.324;2023-03-23T02:28:08;5.40;;;3.63;;
35743;SDS011;21867;52.012;4.324;2023-03-23T02:30:54;3.80;;;3.33;;
35743;SDS011;21867;52.012;4.324;2023-03-23T02:33:29;4.87;;;3.40;;
35743;SDS011;21867;52.012;4.324;2023-03-23T02:42:20;7.70;;;3.77;;
35743;SDS011;21867;52.012;4.324;2023-03-23T02:44:48;6.60;;;3.40;;
35743;SDS011;21867;52.012;4.324;2023-03-23T02:47:16;8.83;;;3.90;;
35743;SDS011;21867;52.012;4.324;2023-03-23T02:49:46;5.17;;;3.50;;
35743;SDS011;21867;52.012;4.324;2023-03-23T02:52:16;7.97;;;4.47;;
35743;SDS011;21867;52.012;4.324;2023-03-23T02:54:45;6.17;;;3.00;;
35743;SDS011;21867;52.012;4.324;2023-03-23T02:57:12;5.00;;;3.17;;
35743;SDS011;21867;52.012;4.324;2023-03-23T02:59:42;9.07;;;4.00;;
35743;SDS011;21867;52.012;4.324;2023-03-23T03:02:10;5.80;;;3.50;;
35743;SDS011;21867;52.012;4.324;2023-03-23T03:04:38;6.90;;;3.60;;
35743;SDS011;21867;52.012;4.324;2023-03-23T03:07:09;5.23;;;2.90;;
35743;SDS011;21867;52.012;4.324;2023-03-23T03:16:27;4.30;;;3.90;;
35743;SDS011;21867;52.012;4.324;2023-03-23T03:18:56;6.93;;;4.27;;
35743;SDS011;21867;52.012;4.324;2023-03-23T03:21:25;7.13;;;4.60;;
35743;SDS011;21867;52.012;4.324;2023-03-23T03:26:38;4.43;;;4.03;;
35743;SDS011;21867;52.012;4.324;2023-03-23T03:29:19;3.93;;;3.53;;
35743;SDS011;21867;52.012;4.324;2023-03-23T03:31:47;6.53;;;4.60;;
35743;SDS011;21867;52.012;4.324;2023-03-23T03:34:15;5.37;;;4.20;;
35743;SDS011;21867;52.012;4.324;2023-03-23T03:36:42;5.23;;;4.33;;
35743;SDS011;21867;52.012;4.324;2023-03-23T03:42:01;6.67;;;4.50;;
35743;SDS011;21867;52.012;4.324;2023-03-23T03:44:27;9.13;;;5.00;;
35743;SDS011;21867;52.012;4.324;2023-03-23T03:46:54;6.47;;;4.60;;
35743;SDS011;21867;52.012;4.324;2023-03-23T03:59:02;6.23;;;3.53;;
35743;SDS011;21867;52.012;4.324;2023-03-23T04:01:47;6.20;;;3.63;;
35743;SDS011;21867;52.012;4.324;2023-03-23T04:04:13;8.60;;;4.30;;
35743;SDS011;21867;52.012;4.324;2023-03-23T04:06:39;5.23;;;3.27;;
35743;SDS011;21867;52.012;4.324;2023-03-23T04:11:50;10.90;;;4.93;;
35743;SDS011;21867;52.012;4.324;2023-03-23T04:14:38;11.60;;;5.23;;
35743;SDS011;21867;52.012;4.324;2023-03-23T04:17:04;10.73;;;4.47;;
35743;SDS011;21867;52.012;4.324;2023-03-23T04:19:31;9.80;;;3.97;;
35743;SDS011;21867;52.012;4.324;2023-03-23T04:21:57;10.00;;;3.93;;
35743;SDS011;21867;52.012;4.324;2023-03-23T04:31:35;14.20;;;4.30;;
35743;SDS011;21867;52.012;4.324;2023-03-23T04:34:30;9.57;;;3.90;;
35743;SDS011;21867;52.012;4.324;2023-03-23T04:36:56;11.03;;;3.93;;
35743;SDS011;21867;52.012;4.324;2023-03-23T04:39:41;8.20;;;3.67;;
35743;SDS011;21867;52.012;4.324;2023-03-23T04:42:08;11.03;;;4.03;;
35743;SDS011;21867;52.012;4.324;2023-03-23T04:44:52;10.63;;;3.97;;
35743;SDS011;21867;52.012;4.324;2023-03-23T04:47:25;12.60;;;3.30;;
35743;SDS011;21867;52.012;4.324;2023-03-23T04:49:55;12.87;;;3.93;;
35743;SDS011;21867;52.012;4.324;2023-03-23T04:52:27;14.73;;;5.00;;
35743;SDS011;21867;52.012;4.324;2023-03-23T04:57:40;13.73;;;4.60;;
35743;SDS011;21867;52.012;4.324;2023-03-23T05:00:25;9.63;;;4.70;;
35743;SDS011;21867;52.012;4.324;2023-03-23T05:02:55;14.83;;;4.33;;
35743;SDS011;21867;52.012;4.324;2023-03-23T05:11:21;13.37;;;4.83;;
35743;SDS011;21867;52.012;4.324;2023-03-23T05:13:48;16.77;;;5.30;;
35743;SDS011;21867;52.012;4.324;2023-03-23T05:16:15;15.27;;;5.00;;
35743;SDS011;21867;52.012;4.324;2023-03-23T05:18:44;15.97;;;5.43;;
35743;SDS011;21867;52.012;4.324;2023-03-23T05:21:13;15.37;;;4.97;;
35743;SDS011;21867;52.012;4.324;2023-03-23T05:29:14;13.87;;;4.73;;
35743;SDS011;21867;52.012;4.324;2023-03-23T05:31:51;9.83;;;4.63;;
35743;SDS011;21867;52.012;4.324;2023-03-23T05:34:19;18.10;;;5.10;;
35743;SDS011;21867;52.012;4.324;2023-03-23T05:36:49;11.47;;;4.57;;
35743;SDS011;21867;52.012;4.324;2023-03-23T05:46:08;10.23;;;4.50;;
35743;SDS011;21867;52.012;4.324;2023-03-23T05:48:36;24.30;;;6.17;;
35743;SDS011;21867;52.012;4.324;2023-03-23T05:51:05;14.27;;;4.47;;
35743;SDS011;21867;52.012;4.324;2023-03-23T05:53:36;19.33;;;5.50;;
35743;SDS011;21867;52.012;4.324;2023-03-23T05:56:03;15.67;;;4.30;;
35743;SDS011;21867;52.012;4.324;2023-03-23T06:01:45;21.17;;;3.90;;
35743;SDS011;21867;52.012;4.324;2023-03-23T06:04:11;17.27;;;6.73;;
35743;SDS011;21867;52.012;4.324;2023-03-23T06:06:45;12.33;;;4.50;;
35743;SDS011;21867;52.012;4.324;2023-03-23T06:15:59;15.17;;;4.70;;
35743;SDS011;21867;52.012;4.324;2023-03-23T06:18:44;24.00;;;5.13;;
35743;SDS011;21867;52.012;4.324;2023-03-23T06:21:18;15.00;;;4.60;;
35743;SDS011;21867;52.012;4.324;2023-03-23T06:24:06;18.50;;;5.80;;
35743;SDS011;21867;52.012;4.324;2023-03-23T06:26:33;13.20;;;4.90;;
35743;SDS011;21867;52.012;4.324;2023-03-23T06:29:02;21.67;;;4.63;;
35743;SDS011;21867;52.012;4.324;2023-03-23T06:31:30;14.70;;;5.50;;
35743;SDS011;21867;52.012;4.324;2023-03-23T06:34:01;15.37;;;4.87;;
35743;SDS011;21867;52.012;4.324;2023-03-23T06:36:47;11.23;;;3.90;;
35743;SDS011;21867;52.012;4.324;2023-03-23T06:39:19;11.00;;;3.87;;
35743;SDS011;21867;52.012;4.324;2023-03-23T06:41:56;12.07;;;3.47;;
35743;SDS011;21867;52.012;4.324;2023-03-23T06:44:22;12.83;;;3.70;;
35743;SDS011;21867;52.012;4.324;2023-03-23T06:46:49;12.73;;;4.30;;
35743;SDS011;21867;52.012;4.324;2023-03-23T06:49:23;15.53;;;4.73;;
35743;SDS011;21867;52.012;4.324;2023-03-23T06:51:57;14.73;;;4.03;;
35743;SDS011;21867;52.012;4.324;2023-03-23T06:54:25;13.80;;;4.33;;
35743;SDS011;21867;52.012;4.324;2023-03-23T06:56:51;13.63;;;4.40;;
35743;SDS011;21867;52.012;4.324;2023-03-23T06:59:18;10.27;;;3.67;;
35743;SDS011;21867;52.012;4.324;2023-03-23T07:01:45;16.83;;;3.77;;
35743;SDS011;21867;52.012;4.324;2023-03-23T07:04:12;11.97;;;4.00;;
35743;SDS011;21867;52.012;4.324;2023-03-23T07:06:48;12.77;;;4.70;;
35743;SDS011;21867;52.012;4.324;2023-03-23T07:09:14;10.40;;;3.17;;
35743;SDS011;21867;52.012;4.324;2023-03-23T07:11:42;15.00;;;3.87;;
35743;SDS011;21867;52.012;4.324;2023-03-23T07:14:18;16.03;;;3.83;;
35743;SDS011;21867;52.012;4.324;2023-03-23T07:16:45;14.30;;;4.40;;
35743;SDS011;21867;52.012;4.324;2023-03-23T07:19:12;11.40;;;4.60;;
35743;SDS011;21867;52.012;4.324;2023-03-23T07:21:38;17.67;;;3.40;;
35743;SDS011;21867;52.012;4.324;2023-03-23T07:24:05;9.83;;;2.73;;
35743;SDS011;21867;52.012;4.324;2023-03-23T07:26:44;12.00;;;4.20;;
35743;SDS011;21867;52.012;4.324;2023-03-23T07:29:11;13.73;;;3.80;;
35743;SDS011;21867;52.012;4.324;2023-03-23T07:31:41;9.90;;;3.63;;
35743;SDS011;21867;52.012;4.324;2023-03-23T07:34:08;15.77;;;4.47;;
35743;SDS011;21867;52.012;4.324;2023-03-23T07:37:03;12.33;;;4.30;;
35743;SDS011;21867;52.012;4.324;2023-03-23T07:39:33;10.57;;;4.00;;
35743;SDS011;21867;52.012;4.324;2023-03-23T07:42:02;14.50;;;5.13;;
35743;SDS011;21867;52.012;4.324;2023-03-23T07:44:41;14.90;;;5.17;;
35743;SDS011;21867;52.012;4.324;2023-03-23T07:47:11;14.87;;;5.20;;
35743;SDS011;21867;52.012;4.324;2023-03-23T07:49:37;15.20;;;4.97;;
35743;SDS011;21867;52.012;4.324;2023-03-23T07:52:19;15.13;;;5.97;;
35743;SDS011;21867;52.012;4.324;2023-03-23T07:54:45;13.93;;;4.20;;
35743;SDS011;21867;52.012;4.324;2023-03-23T08:00:28;12.90;;;4.30;;
35743;SDS011;21867;52.012;4.324;2023-03-23T08:02:55;10.93;;;4.23;;
35743;SDS011;21867;52.012;4.324;2023-03-23T08:05:47;14.23;;;5.23;;
35743;SDS011;21867;52.012;4.324;2023-03-23T08:08:43;10.13;;;4.23;;
35743;SDS011;21867;52.012;4.324;2023-03-23T08:11:28;12.80;;;5.00;;
35743;SDS011;21867;52.012;4.324;2023-03-23T08:20:34;8.30;;;3.53;;
35743;SDS011;21867;52.012;4.324;2023-03-23T08:23:21;15.57;;;4.40;;
35743;SDS011;21867;52.012;4.324;2023-03-23T08:26:06;11.07;;;3.93;;
35743;SDS011;21867;52.012;4.324;2023-03-23T08:28:52;9.27;;;4.00;;
35743;SDS011;21867;52.012;4.324;2023-03-23T08:31:37;14.60;;;4.93;;
35743;SDS011;21867;52.012;4.324;2023-03-23T08:34:31;14.60;;;5.03;;
35743;SDS011;21867;52.012;4.324;2023-03-23T08:37:21;15.10;;;4.10;;
35743;SDS011;21867;52.012;4.324;2023-03-23T08:39:55;23.57;;;6.07;;
35743;SDS011;21867;52.012;4.324;2023-03-23T08:49:51;17.27;;;5.47;;
35743;SDS011;21867;52.012;4.324;2023-03-23T08:52:31;13.53;;;4.27;;
35743;SDS011;21867;52.012;4.324;2023-03-23T08:55:12;12.37;;;3.87;;
35743;SDS011;21867;52.012;4.324;2023-03-23T08:58:05;16.97;;;4.73;;
35743;SDS011;21867;52.012;4.324;2023-03-23T09:00:55;10.97;;;4.37;;
35743;SDS011;21867;52.012;4.324;2023-03-23T09:03:52;18.83;;;4.90;;
35743;SDS011;21867;52.012;4.324;2023-03-23T09:06:31;14.47;;;4.10;;
35743;SDS011;21867;52.012;4.324;2023-03-23T09:08:59;16.77;;;5.90;;
35743;SDS011;21867;52.012;4.324;2023-03-23T09:11:25;19.73;;;4.60;;
35743;SDS011;21867;52.012;4.324;2023-03-23T09:20:07;11.27;;;3.80;;
35743;SDS011;21867;52.012;4.324;2023-03-23T09:22:34;10.17;;;3.60;;
35743;SDS011;21867;52.012;4.324;2023-03-23T09:25:02;18.60;;;5.13;;
35743;SDS011;21867;52.012;4.324;2023-03-23T09:27:28;16.80;;;4.73;;
35743;SDS011;21867;52.012;4.324;2023-03-23T09:29:54;15.83;;;4.57;;
35743;SDS011;21867;52.012;4.324;2023-03-23T09:32:20;14.37;;;4.30;;
35743;SDS011;21867;52.012;4.324;2023-03-23T09:34:46;18.53;;;4.87;;
35743;SDS011;21867;52.012;4.324;2023-03-23T09:37:13;16.20;;;5.67;;
35743;SDS011;21867;52.012;4.324;2023-03-23T09:39:39;16.87;;;4.50;;
35743;SDS011;21867;52.012;4.324;2023-03-23T09:42:11;16.23;;;5.20;;
35743;SDS011;21867;52.012;4.324;2023-03-23T09:44:42;17.03;;;5.37;;
35743;SDS011;21867;52.012;4.324;2023-03-23T09:49:48;24.27;;;5.80;;
35743;SDS011;21867;52.012;4.324;2023-03-23T09:52:16;23.57;;;5.37;;
35743;SDS011;21867;52.012;4.324;2023-03-23T09:54:44;20.30;;;5.63;;
35743;SDS011;21867;52.012;4.324;2023-03-23T09:57:14;19.80;;;6.03;;
35743;SDS011;21867;52.012;4.324;2023-03-23T09:59:42;14.87;;;4.43;;
35743;SDS011;21867;52.012;4.324;2023-03-23T10:08:41;19.13;;;5.03;;
35743;SDS011;21867;52.012;4.324;2023-03-23T10:11:09;15.70;;;3.83;;
35743;SDS011;21867;52.012;4.324;2023-03-23T10:16:21;27.43;;;5.43;;
35743;SDS011;21867;52.012;4.324;2023-03-23T10:18:49;24.07;;;6.20;;
35743;SDS011;21867;52.012;4.324;2023-03-23T10:21:19;16.80;;;5.90;;
35743;SDS011;21867;52.012;4.324;2023-03-23T10:23:50;17.30;;;6.53;;
35743;SDS011;21867;52.012;4.324;2023-03-23T10:28:59;23.43;;;6.50;;
35743;SDS011;21867;52.012;4.324;2023-03-23T10:31:28;16.57;;;4.63;;
35743;SDS011;21867;52.012;4.324;2023-03-23T10:34:02;12.00;;;4.47;;
35743;SDS011;21867;52.012;4.324;2023-03-23T10:36:43;23.23;;;6.13;;
35743;SDS011;21867;52.012;4.324;2023-03-23T10:39:10;23.73;;;5.50;;
35743;SDS011;21867;52.012;4.324;2023-03-23T10:41:38;12.90;;;3.97;;
35743;SDS011;21867;52.012;4.324;2023-03-23T10:44:08;20.47;;;6.50;;
35743;SDS011;21867;52.012;4.324;2023-03-23T10:46:55;19.20;;;5.30;;
35743;SDS011;21867;52.012;4.324;2023-03-23T10:56:18;13.33;;;4.17;;
35743;SDS011;21867;52.012;4.324;2023-03-23T10:58:47;18.13;;;5.20;;
35743;SDS011;21867;52.012;4.324;2023-03-23T11:01:13;15.13;;;4.57;;
35743;SDS011;21867;52.012;4.324;2023-03-23T11:03:42;10.50;;;4.30;;
35743;SDS011;21867;52.012;4.324;2023-03-23T11:09:09;12.03;;;3.23;;
35743;SDS011;21867;52.012;4.324;2023-03-23T11:11:37;11.47;;;4.27;;
35743;SDS011;21867;52.012;4.324;2023-03-23T11:14:12;11.63;;;4.27;;
35743;SDS011;21867;52.012;4.324;2023-03-23T11:16:42;12.27;;;5.07;;
35743;SDS011;21867;52.012;4.324;2023-03-23T11:19:14;16.13;;;5.43;;
35743;SDS011;21867;52.012;4.324;2023-03-23T11:28:29;11.30;;;3.63;;
35743;SDS011;21867;52.012;4.324;2023-03-23T11:30:56;14.53;;;4.93;;
35743;SDS011;21867;52.012;4.324;2023-03-23T11:33:23;7.87;;;3.47;;
35743;SDS011;21867;52.012;4.324;2023-03-23T11:35:50;16.97;;;4.97;;
35743;SDS011;21867;52.012;4.324;2023-03-23T11:38:18;12.70;;;4.47;;
35743;SDS011;21867;52.012;4.324;2023-03-23T11:46:27;15.50;;;5.00;;
35743;SDS011;21867;52.012;4.324;2023-03-23T11:48:56;12.73;;;4.13;;
35743;SDS011;21867;52.012;4.324;2023-03-23T11:58:12;17.00;;;6.30;;
35743;SDS011;21867;52.012;4.324;2023-03-23T12:00:39;12.83;;;3.60;;
35743;SDS011;21867;52.012;4.324;2023-03-23T12:03:08;9.93;;;3.80;;
35743;SDS011;21867;52.012;4.324;2023-03-23T12:05:40;14.07;;;3.53;;
35743;SDS011;21867;52.012;4.324;2023-03-23T12:08:13;11.53;;;3.43;;
35743;SDS011;21867;52.012;4.324;2023-03-23T12:10:59;16.23;;;4.20;;
35743;SDS011;21867;52.012;4.324;2023-03-23T12:13:33;9.73;;;3.27;;
35743;SDS011;21867;52.012;4.324;2023-03-23T12:16:04;8.47;;;3.40;;
35743;SDS011;21867;52.012;4.324;2023-03-23T12:18:34;12.90;;;3.70;;
35743;SDS011;21867;52.012;4.324;2023-03-23T12:27:25;13.20;;;4.53;;
35743;SDS011;21867;52.012;4.324;2023-03-23T12:30:00;6.33;;;3.37;;
35743;SDS011;21867;52.012;4.324;2023-03-23T12:32:35;9.67;;;3.60;;
35743;SDS011;21867;52.012;4.324;2023-03-23T12:35:06;8.53;;;4.13;;
35743;SDS011;21867;52.012;4.324;2023-03-23T12:37:38;6.30;;;2.60;;
35743;SDS011;21867;52.012;4.324;2023-03-23T12:43:19;4.20;;;2.60;;
35743;SDS011;21867;52.012;4.324;2023-03-23T12:45:51;12.13;;;3.97;;
35743;SDS011;21867;52.012;4.324;2023-03-23T12:48:20;10.33;;;3.23;;
35743;SDS011;21867;52.012;4.324;2023-03-23T12:57:27;13.83;;;4.20;;
35743;SDS011;21867;52.012;4.324;2023-03-23T12:59:56;10.97;;;3.07;;
35743;SDS011;21867;52.012;4.324;2023-03-23T13:02:25;13.30;;;4.03;;
35743;SDS011;21867;52.012;4.324;2023-03-23T13:04:55;11.23;;;3.73;;
35743;SDS011;21867;52.012;4.324;2023-03-23T13:07:26;12.30;;;4.17;;
35743;SDS011;21867;52.012;4.324;2023-03-23T13:12:35;15.10;;;3.87;;
35743;SDS011;21867;52.012;4.324;2023-03-23T13:15:03;11.50;;;2.90;;
35743;SDS011;21867;52.012;4.324;2023-03-23T13:17:37;18.40;;;3.83;;
35743;SDS011;21867;52.012;4.324;2023-03-23T13:20:32;12.13;;;3.73;;
35743;SDS011;21867;52.012;4.324;2023-03-23T13:23:02;15.37;;;4.93;;
35743;SDS011;21867;52.012;4.324;2023-03-23T13:32:04;13.13;;;4.17;;
35743;SDS011;21867;52.012;4.324;2023-03-23T13:34:32;13.30;;;4.37;;
35743;SDS011;21867;52.012;4.324;2023-03-23T13:36:59;16.00;;;4.90;;
35743;SDS011;21867;52.012;4.324;2023-03-23T13:42:18;13.43;;;4.90;;
35743;SDS011;21867;52.012;4.324;2023-03-23T13:47:35;21.47;;;6.03;;
35743;SDS011;21867;52.012;4.324;2023-03-23T13:50:05;6.17;;;2.27;;
35743;SDS011;21867;52.012;4.324;2023-03-23T13:52:36;10.90;;;4.13;;
35743;SDS011;21867;52.012;4.324;2023-03-23T13:58:21;14.07;;;4.07;;
35743;SDS011;21867;52.012;4.324;2023-03-23T14:00:48;12.60;;;4.10;;
35743;SDS011;21867;52.012;4.324;2023-03-23T14:03:17;16.77;;;4.63;;
35743;SDS011;21867;52.012;4.324;2023-03-23T14:12:27;13.73;;;4.07;;
35743;SDS011;21867;52.012;4.324;2023-03-23T14:14:55;9.80;;;3.43;;
35743;SDS011;21867;52.012;4.324;2023-03-23T14:17:22;14.13;;;4.07;;
35743;SDS011;21867;52.012;4.324;2023-03-23T14:19:50;18.30;;;5.00;;
35743;SDS011;21867;52.012;4.324;2023-03-23T14:22:22;10.63;;;3.97;;
35743;SDS011;21867;52.012;4.324;2023-03-23T14:27:38;20.83;;;5.10;;
35743;SDS011;21867;52.012;4.324;2023-03-23T14:30:06;16.30;;;5.07;;
35743;SDS011;21867;52.012;4.324;2023-03-23T14:32:32;15.17;;;4.23;;
35743;SDS011;21867;52.012;4.324;2023-03-23T14:42:10;13.10;;;4.10;;
35743;SDS011;21867;52.012;4.324;2023-03-23T14:44:39;14.93;;;5.83;;
35743;SDS011;21867;52.012;4.324;2023-03-23T14:47:06;16.67;;;4.30;;
35743;SDS011;21867;52.012;4.324;2023-03-23T14:49:35;17.77;;;5.40;;
35743;SDS011;21867;52.012;4.324;2023-03-23T14:52:03;19.20;;;5.47;;
35743;SDS011;21867;52.012;4.324;2023-03-23T14:57:12;11.43;;;4.07;;
35743;SDS011;21867;52.012;4.324;2023-03-23T14:59:41;11.43;;;3.87;;
35743;SDS011;21867;52.012;4.324;2023-03-23T15:02:10;20.13;;;5.47;;
35743;SDS011;21867;52.012;4.324;2023-03-23T15:04:37;20.03;;;4.70;;
35743;SDS011;21867;52.012;4.324;2023-03-23T15:07:04;19.47;;;5.37;;
35743;SDS011;21867;52.012;4.324;2023-03-23T15:09:46;11.83;;;3.97;;
35743;SDS011;21867;52.012;4.324;2023-03-23T15:18:36;20.73;;;4.47;;
35743;SDS011;21867;52.012;4.324;2023-03-23T15:21:11;14.60;;;4.60;;
35743;SDS011;21867;52.012;4.324;2023-03-23T15:23:41;11.03;;;3.83;;
35743;SDS011;21867;52.012;4.324;2023-03-23T15:26:15;27.23;;;5.77;;
35743;SDS011;21867;52.012;4.324;2023-03-23T15:31:30;19.23;;;4.23;;
35743;SDS011;21867;52.012;4.324;2023-03-23T15:33:59;20.97;;;4.90;;
35743;SDS011;21867;52.012;4.324;2023-03-23T15:36:26;15.53;;;4.57;;
35743;SDS011;21867;52.012;4.324;2023-03-23T15:48:10;16.60;;;4.33;;
35743;SDS011;21867;52.012;4.324;2023-03-23T15:50:39;13.60;;;4.37;;
35743;SDS011;21867;52.012;4.324;2023-03-23T15:53:15;16.93;;;4.80;;
35743;SDS011;21867;52.012;4.324;2023-03-23T15:55:43;15.33;;;4.80;;
35743;SDS011;21867;52.012;4.324;2023-03-23T15:58:10;16.97;;;5.47;;
35743;SDS011;21867;52.012;4.324;2023-03-23T16:00:38;17.07;;;4.80;;
35743;SDS011;21867;52.012;4.324;2023-03-23T16:03:07;15.77;;;6.10;;
35743;SDS011;21867;52.012;4.324;2023-03-23T16:05:35;18.50;;;4.83;;
35743;SDS011;21867;52.012;4.324;2023-03-23T16:08:05;18.90;;;5.13;;
35743;SDS011;21867;52.012;4.324;2023-03-23T16:10:32;21.53;;;5.63;;
35743;SDS011;21867;52.012;4.324;2023-03-23T16:12:59;19.43;;;5.57;;
35743;SDS011;21867;52.012;4.324;2023-03-23T16:15:26;16.97;;;5.73;;
35743;SDS011;21867;52.012;4.324;2023-03-23T16:17:54;17.20;;;5.50;;
35743;SDS011;21867;52.012;4.324;2023-03-23T16:20:21;17.37;;;4.87;;
35743;SDS011;21867;52.012;4.324;2023-03-23T16:22:50;17.87;;;5.10;;
35743;SDS011;21867;52.012;4.324;2023-03-23T16:32:00;19.43;;;5.10;;
35743;SDS011;21867;52.012;4.324;2023-03-23T16:34:28;17.83;;;5.13;;
35743;SDS011;21867;52.012;4.324;2023-03-23T16:36:55;22.33;;;5.33;;
35743;SDS011;21867;52.012;4.324;2023-03-23T16:39:23;25.07;;;5.30;;
35743;SDS011;21867;52.012;4.324;2023-03-23T16:41:50;18.63;;;5.70;;
35743;SDS011;21867;52.012;4.324;2023-03-23T16:44:33;20.10;;;5.60;;
35743;SDS011;21867;52.012;4.324;2023-03-23T16:47:02;19.97;;;6.73;;
35743;SDS011;21867;52.012;4.324;2023-03-23T16:49:29;18.53;;;6.47;;
35743;SDS011;21867;52.012;4.324;2023-03-23T16:51:56;19.00;;;5.53;;
35743;SDS011;21867;52.012;4.324;2023-03-23T17:00:34;20.93;;;6.03;;
35743;SDS011;21867;52.012;4.324;2023-03-23T17:03:03;18.23;;;4.93;;
35743;SDS011;21867;52.012;4.324;2023-03-23T17:05:31;18.00;;;6.17;;
35743;SDS011;21867;52.012;4.324;2023-03-23T17:07:59;17.87;;;5.20;;
35743;SDS011;21867;52.012;4.324;2023-03-23T17:10:27;19.10;;;5.40;;
35743;SDS011;21867;52.012;4.324;2023-03-23T17:12:54;15.37;;;5.87;;
35743;SDS011;21867;52.012;4.324;2023-03-23T17:15:22;19.93;;;5.60;;
35743;SDS011;21867;52.012;4.324;2023-03-23T17:17:49;20.20;;;5.73;;
35743;SDS011;21867;52.012;4.324;2023-03-23T17:20:18;20.70;;;5.17;;
35743;SDS011;21867;52.012;4.324;2023-03-23T17:22:45;23.43;;;5.80;;
35743;SDS011;21867;52.012;4.324;2023-03-23T17:25:13;18.27;;;5.73;;
35743;SDS011;21867;52.012;4.324;2023-03-23T17:30:24;15.27;;;5.23;;
35743;SDS011;21867;52.012;4.324;2023-03-23T17:32:51;22.23;;;5.37;;
35743;SDS011;21867;52.012;4.324;2023-03-23T17:35:20;18.93;;;5.63;;
35743;SDS011;21867;52.012;4.324;2023-03-23T17:37:47;18.10;;;5.27;;
35743;SDS011;21867;52.012;4.324;2023-03-23T17:40:14;25.40;;;6.50;;
35743;SDS011;21867;52.012;4.324;2023-03-23T17:42:54;23.17;;;5.33;;
35743;SDS011;21867;52.012;4.324;2023-03-23T17:51:46;14.77;;;5.83;;
35743;SDS011;21867;52.012;4.324;2023-03-23T17:54:13;16.43;;;5.23;;
35743;SDS011;21867;52.012;4.324;2023-03-23T17:56:41;20.53;;;5.23;;
35743;SDS011;21867;52.012;4.324;2023-03-23T17:59:08;15.27;;;6.37;;
35743;SDS011;21867;52.012;4.324;2023-03-23T18:01:36;22.43;;;5.87;;
35743;SDS011;21867;52.012;4.324;2023-03-23T18:04:03;17.83;;;4.27;;
35743;SDS011;21867;52.012;4.324;2023-03-23T18:06:30;13.00;;;4.43;;
35743;SDS011;21867;52.012;4.324;2023-03-23T18:08:59;19.00;;;4.63;;
35743;SDS011;21867;52.012;4.324;2023-03-23T18:11:26;12.83;;;3.53;;
35743;SDS011;21867;52.012;4.324;2023-03-23T18:13:53;10.30;;;4.50;;
35743;SDS011;21867;52.012;4.324;2023-03-23T18:16:21;12.87;;;4.97;;
35743;SDS011;21867;52.012;4.324;2023-03-23T18:18:48;12.47;;;4.70;;
35743;SDS011;21867;52.012;4.324;2023-03-23T18:21:15;11.07;;;4.53;;
35743;SDS011;21867;52.012;4.324;2023-03-23T18:23:43;13.23;;;4.67;;
35743;SDS011;21867;52.012;4.324;2023-03-23T18:26:25;9.50;;;5.23;;
35743;SDS011;21867;52.012;4.324;2023-03-23T18:28:53;15.77;;;6.00;;
35743;SDS011;21867;52.012;4.324;2023-03-23T18:31:20;11.50;;;3.80;;
35743;SDS011;21867;52.012;4.324;2023-03-23T18:33:48;9.80;;;3.77;;
35743;SDS011;21867;52.012;4.324;2023-03-23T18:36:17;12.93;;;3.70;;
35743;SDS011;21867;52.012;4.324;2023-03-23T18:38:44;17.33;;;5.03;;
35743;SDS011;21867;52.012;4.324;2023-03-23T18:41:12;11.60;;;4.33;;
35743;SDS011;21867;52.012;4.324;2023-03-23T18:43:41;13.80;;;4.00;;
35743;SDS011;21867;52.012;4.324;2023-03-23T18:46:08;10.50;;;3.97;;
35743;SDS011;21867;52.012;4.324;2023-03-23T18:48:36;13.70;;;5.03;;
35743;SDS011;21867;52.012;4.324;2023-03-23T18:51:03;12.47;;;5.70;;
35743;SDS011;21867;52.012;4.324;2023-03-23T18:53:30;17.33;;;7.57;;
35743;SDS011;21867;52.012;4.324;2023-03-23T18:56:05;16.50;;;7.27;;
35743;SDS011;21867;52.012;4.324;2023-03-23T18:58:33;14.47;;;6.87;;
35743;SDS011;21867;52.012;4.324;2023-03-23T19:01:06;11.70;;;4.77;;
35743;SDS011;21867;52.012;4.324;2023-03-23T19:03:34;20.10;;;5.67;;
35743;SDS011;21867;52.012;4.324;2023-03-23T19:06:01;12.07;;;4.20;;
35743;SDS011;21867;52.012;4.324;2023-03-23T19:08:29;16.43;;;5.37;;
35743;SDS011;21867;52.012;4.324;2023-03-23T19:10:57;7.67;;;4.97;;
35743;SDS011;21867;52.012;4.324;2023-03-23T19:13:25;18.50;;;4.90;;
35743;SDS011;21867;52.012;4.324;2023-03-23T19:15:52;11.33;;;4.63;;
35743;SDS011;21867;52.012;4.324;2023-03-23T19:18:21;10.27;;;4.53;;
35743;SDS011;21867;52.012;4.324;2023-03-23T19:20:49;13.93;;;4.63;;
35743;SDS011;21867;52.012;4.324;2023-03-23T19:23:19;9.83;;;3.57;;